WAT251 KPWM-KBNA
Flight info
| Callsign | WAT251 |
|---|---|
| Flight time | 2h 42m |
| Altitude | 36000 |
| Route | HSKEL3 CAM DCT ALB J49 PSB Q71 GEFFS DCT HVQ Q68 YOCKY DCT CUTRR PASLY5 |
| Aircraft | B739/M-SDE2E3FGHIRWXY/LB1 |
Departure
| Time | 2026-05-07 22:33 |
|---|---|
| Airport | Portland International Jetport (KPWM) |
Arrival
| Time | 2026-05-08 01:15 |
|---|---|
| Airport | Nashville International Airport (KBNA) |
| Time | Latitude | Longitude | Altitude | Speed | Heading |
|---|---|---|---|---|---|
| 2026-05-07 21:59 | 43.64681 | -70.31119 | 64 ft | 0 kts | 5° |
| 2026-05-07 22:23 | 43.64680 | -70.31119 | 64 ft | 0 kts | 5° |
| 2026-05-07 22:23 | 43.64669 | -70.31121 | 63 ft | 2 kts | 5° |
| 2026-05-07 22:23 | 43.64654 | -70.31123 | 63 ft | 2 kts | 5° |
| 2026-05-07 22:24 | 43.64639 | -70.31124 | 63 ft | 2 kts | 5° |
| 2026-05-07 22:24 | 43.64624 | -70.31126 | 63 ft | 2 kts | 5° |
| 2026-05-07 22:24 | 43.64609 | -70.31130 | 63 ft | 2 kts | 35° |
| 2026-05-07 22:24 | 43.64600 | -70.31145 | 64 ft | 2 kts | 73° |
| 2026-05-07 22:25 | 43.64599 | -70.31158 | 64 ft | 1 kts | 97° |
| 2026-05-07 22:25 | 43.64600 | -70.31165 | 64 ft | 0 kts | 96° |
| 2026-05-07 22:28 | 43.64599 | -70.31150 | 64 ft | 5 kts | 96° |
| 2026-05-07 22:28 | 43.64595 | -70.31094 | 63 ft | 7 kts | 96° |
| 2026-05-07 22:29 | 43.64588 | -70.31004 | 61 ft | 10 kts | 95° |
| 2026-05-07 22:29 | 43.64582 | -70.30901 | 59 ft | 11 kts | 95° |
| 2026-05-07 22:29 | 43.64573 | -70.30768 | 55 ft | 16 kts | 96° |
| 2026-05-07 22:29 | 43.64560 | -70.30599 | 50 ft | 18 kts | 96° |
| 2026-05-07 22:30 | 43.64555 | -70.30418 | 45 ft | 19 kts | 78° |
| 2026-05-07 22:30 | 43.64587 | -70.30236 | 38 ft | 20 kts | 93° |
| 2026-05-07 22:30 | 43.64576 | -70.30059 | 33 ft | 16 kts | 95° |
| 2026-05-07 22:30 | 43.64566 | -70.29958 | 30 ft | 5 kts | 112° |
| 2026-05-07 22:31 | 43.64565 | -70.29953 | 30 ft | 0 kts | 118° |
| 2026-05-07 22:31 | 43.64563 | -70.29951 | 30 ft | 2 kts | 121° |
| 2026-05-07 22:31 | 43.64519 | -70.29918 | 29 ft | 9 kts | 170° |
| 2026-05-07 22:31 | 43.64462 | -70.29918 | 30 ft | 9 kts | 182° |
| 2026-05-07 22:32 | 43.64409 | -70.29947 | 32 ft | 6 kts | 268° |
| 2026-05-07 22:32 | 43.64410 | -70.29960 | 32 ft | 9 kts | 274° |
| 2026-05-07 22:32 | 43.64437 | -70.30393 | 46 ft | 79 kts | 275° |
| 2026-05-07 22:32 | 43.64507 | -70.31440 | 68 ft | 137 kts | 275° |
| 2026-05-07 22:33 | 43.64599 | -70.32810 | 626 ft | 142 kts | 277° |
| 2026-05-07 22:33 | 43.64706 | -70.34270 | 971 ft | 168 kts | 278° |
| 2026-05-07 22:33 | 43.64836 | -70.35989 | 1426 ft | 191 kts | 279° |
| 2026-05-07 22:33 | 43.64988 | -70.37852 | 2052 ft | 200 kts | 279° |
| 2026-05-07 22:34 | 43.65120 | -70.39789 | 2653 ft | 209 kts | 277° |
| 2026-05-07 22:34 | 43.65281 | -70.41756 | 3389 ft | 209 kts | 280° |
| 2026-05-07 22:34 | 43.65482 | -70.43845 | 3784 ft | 227 kts | 278° |
| 2026-05-07 22:34 | 43.65619 | -70.46059 | 4293 ft | 241 kts | 276° |
| 2026-05-07 22:35 | 43.65747 | -70.48431 | 4922 ft | 250 kts | 279° |
| 2026-05-07 22:35 | 43.66093 | -70.50753 | 5629 ft | 253 kts | 286° |
| 2026-05-07 22:35 | 43.66589 | -70.53091 | 6396 ft | 255 kts | 287° |
| 2026-05-07 22:35 | 43.67095 | -70.55397 | 7166 ft | 255 kts | 287° |
| 2026-05-07 22:36 | 43.67591 | -70.57729 | 7943 ft | 255 kts | 286° |
| 2026-05-07 22:36 | 43.68076 | -70.60075 | 8683 ft | 257 kts | 286° |
| 2026-05-07 22:36 | 43.68561 | -70.62446 | 9417 ft | 258 kts | 285° |
| 2026-05-07 22:36 | 43.69047 | -70.64824 | 10166 ft | 258 kts | 285° |
| 2026-05-07 22:37 | 43.69537 | -70.67211 | 10687 ft | 267 kts | 284° |
| 2026-05-07 22:37 | 43.70053 | -70.69732 | 11093 ft | 280 kts | 284° |
| 2026-05-07 22:37 | 43.70599 | -70.72401 | 11508 ft | 293 kts | 283° |
| 2026-05-07 22:37 | 43.71161 | -70.75147 | 11925 ft | 306 kts | 283° |
| 2026-05-07 22:38 | 43.71731 | -70.78052 | 12291 ft | 319 kts | 281° |
| 2026-05-07 22:38 | 43.71993 | -70.81108 | 12641 ft | 330 kts | 267° |
| 2026-05-07 22:38 | 43.71477 | -70.84240 | 13198 ft | 337 kts | 251° |
| 2026-05-07 22:38 | 43.70597 | -70.87210 | 13965 ft | 338 kts | 248° |
| 2026-05-07 22:39 | 43.69666 | -70.90176 | 14794 ft | 338 kts | 248° |
| 2026-05-07 22:39 | 43.68749 | -70.93163 | 15547 ft | 339 kts | 248° |
| 2026-05-07 22:39 | 43.67860 | -70.96159 | 16265 ft | 342 kts | 248° |
| 2026-05-07 22:39 | 43.66974 | -70.99200 | 16963 ft | 344 kts | 249° |
| 2026-05-07 22:40 | 43.66085 | -71.02279 | 17659 ft | 346 kts | 249° |
| 2026-05-07 22:40 | 43.65242 | -71.05371 | 18335 ft | 348 kts | 251° |
| 2026-05-07 22:40 | 43.64561 | -71.08579 | 18983 ft | 351 kts | 254° |
| 2026-05-07 22:40 | 43.63985 | -71.11818 | 19605 ft | 353 kts | 256° |
| 2026-05-07 22:41 | 43.63424 | -71.15141 | 20274 ft | 353 kts | 255° |
| 2026-05-07 22:41 | 43.62864 | -71.18430 | 20825 ft | 356 kts | 255° |
| 2026-05-07 22:41 | 43.62293 | -71.21709 | 21447 ft | 356 kts | 255° |
| 2026-05-07 22:41 | 43.61701 | -71.25048 | 21978 ft | 358 kts | 255° |
| 2026-05-07 22:42 | 43.61108 | -71.28358 | 22521 ft | 360 kts | 254° |
| 2026-05-07 22:42 | 43.60503 | -71.31705 | 23036 ft | 361 kts | 254° |
| 2026-05-07 22:42 | 43.59896 | -71.35051 | 23577 ft | 362 kts | 254° |
| 2026-05-07 22:42 | 43.59278 | -71.38438 | 24070 ft | 365 kts | 254° |
| 2026-05-07 22:43 | 43.58663 | -71.41797 | 24523 ft | 367 kts | 254° |
| 2026-05-07 22:43 | 43.58038 | -71.45212 | 24978 ft | 370 kts | 253° |
| 2026-05-07 22:43 | 43.57407 | -71.48659 | 25463 ft | 372 kts | 254° |
| 2026-05-07 22:43 | 43.56770 | -71.52129 | 25873 ft | 375 kts | 254° |
| 2026-05-07 22:44 | 43.56130 | -71.55609 | 26322 ft | 377 kts | 253° |
| 2026-05-07 22:44 | 43.55486 | -71.59109 | 26733 ft | 379 kts | 254° |
| 2026-05-07 22:44 | 43.54834 | -71.62645 | 27153 ft | 381 kts | 254° |
| 2026-05-07 22:44 | 43.54188 | -71.66148 | 27560 ft | 383 kts | 253° |
| 2026-05-07 22:45 | 43.53523 | -71.69740 | 27940 ft | 387 kts | 253° |
| 2026-05-07 22:45 | 43.52868 | -71.73275 | 28471 ft | 385 kts | 253° |
| 2026-05-07 22:45 | 43.52213 | -71.76810 | 29139 ft | 381 kts | 253° |
| 2026-05-07 22:45 | 43.51563 | -71.80310 | 29724 ft | 378 kts | 253° |
| 2026-05-07 22:46 | 43.50910 | -71.83817 | 30183 ft | 377 kts | 253° |
| 2026-05-07 22:46 | 43.50258 | -71.87303 | 30587 ft | 377 kts | 253° |
| 2026-05-07 22:46 | 43.49604 | -71.90802 | 30971 ft | 377 kts | 253° |
| 2026-05-07 22:46 | 43.48950 | -71.94289 | 31371 ft | 376 kts | 253° |
| 2026-05-07 22:47 | 43.48299 | -71.97763 | 31763 ft | 375 kts | 253° |
| 2026-05-07 22:47 | 43.47641 | -72.01260 | 32122 ft | 375 kts | 253° |
| 2026-05-07 22:47 | 43.46977 | -72.04785 | 32471 ft | 375 kts | 253° |
| 2026-05-07 22:47 | 43.46318 | -72.08269 | 32836 ft | 373 kts | 253° |
| 2026-05-07 22:48 | 43.45662 | -72.11732 | 33143 ft | 373 kts | 253° |
| 2026-05-07 22:48 | 43.45002 | -72.15212 | 33386 ft | 374 kts | 253° |
| 2026-05-07 22:48 | 43.44343 | -72.18681 | 33682 ft | 373 kts | 253° |
| 2026-05-07 22:48 | 43.43683 | -72.22154 | 33932 ft | 374 kts | 253° |
| 2026-05-07 22:49 | 43.43028 | -72.25591 | 34194 ft | 374 kts | 253° |
| 2026-05-07 22:49 | 43.42365 | -72.29063 | 34487 ft | 374 kts | 253° |
| 2026-05-07 22:49 | 43.41702 | -72.32534 | 34761 ft | 373 kts | 253° |
| 2026-05-07 22:49 | 43.41046 | -72.35957 | 35004 ft | 373 kts | 253° |
| 2026-05-07 22:50 | 43.40376 | -72.39451 | 35218 ft | 374 kts | 253° |
| 2026-05-07 22:50 | 43.39702 | -72.42901 | 35477 ft | 373 kts | 252° |
| 2026-05-07 22:50 | 43.38930 | -72.46321 | 35686 ft | 373 kts | 249° |
| 2026-05-07 22:50 | 43.37928 | -72.49593 | 35816 ft | 374 kts | 244° |
| 2026-05-07 22:51 | 43.36683 | -72.52769 | 35830 ft | 376 kts | 240° |
| 2026-05-07 22:51 | 43.33940 | -72.58863 | 35834 ft | 372 kts | 239° |
| 2026-05-07 22:52 | 43.31191 | -72.64855 | 35826 ft | 373 kts | 239° |
| 2026-05-07 22:52 | 43.28434 | -72.70910 | 35829 ft | 374 kts | 239° |
| 2026-05-07 22:53 | 43.25695 | -72.76938 | 35821 ft | 373 kts | 239° |
| 2026-05-07 22:53 | 43.22953 | -72.82989 | 35817 ft | 374 kts | 239° |
| 2026-05-07 22:54 | 43.20193 | -72.89063 | 35829 ft | 375 kts | 239° |
| 2026-05-07 22:54 | 43.17437 | -72.95115 | 35828 ft | 373 kts | 239° |
| 2026-05-07 22:55 | 43.14693 | -73.01131 | 35822 ft | 374 kts | 239° |
| 2026-05-07 22:55 | 43.11939 | -73.07153 | 35832 ft | 374 kts | 239° |
| 2026-05-07 22:56 | 43.09172 | -73.13193 | 35846 ft | 375 kts | 239° |
| 2026-05-07 22:56 | 43.06416 | -73.19196 | 35849 ft | 373 kts | 239° |
| 2026-05-07 22:57 | 43.03651 | -73.25211 | 35848 ft | 374 kts | 240° |
| 2026-05-07 22:57 | 43.00877 | -73.31229 | 35853 ft | 375 kts | 239° |
| 2026-05-07 22:58 | 42.98041 | -73.37206 | 35854 ft | 375 kts | 238° |
| 2026-05-07 22:58 | 42.94942 | -73.42985 | 35850 ft | 375 kts | 236° |
| 2026-05-07 22:59 | 42.91839 | -73.48637 | 35851 ft | 374 kts | 236° |
| 2026-05-07 22:59 | 42.88736 | -73.54356 | 35857 ft | 374 kts | 237° |
| 2026-05-07 23:00 | 42.85668 | -73.60039 | 35863 ft | 373 kts | 237° |
| 2026-05-07 23:00 | 42.82615 | -73.65698 | 35867 ft | 374 kts | 236° |
| 2026-05-07 23:01 | 42.79540 | -73.71391 | 35867 ft | 374 kts | 236° |
| 2026-05-07 23:01 | 42.76465 | -73.77074 | 35865 ft | 373 kts | 236° |
| 2026-05-07 23:02 | 42.73477 | -73.82822 | 35876 ft | 373 kts | 240° |
| 2026-05-07 23:02 | 42.70829 | -73.88836 | 35869 ft | 371 kts | 242° |
| 2026-05-07 23:03 | 42.68235 | -73.94853 | 35878 ft | 371 kts | 241° |
| 2026-05-07 23:03 | 42.65597 | -74.00884 | 35882 ft | 371 kts | 241° |
| 2026-05-07 23:04 | 42.62933 | -74.06912 | 35882 ft | 371 kts | 241° |
| 2026-05-07 23:04 | 42.60289 | -74.12857 | 35876 ft | 370 kts | 241° |
| 2026-05-07 23:05 | 42.57619 | -74.18848 | 35868 ft | 371 kts | 241° |
| 2026-05-07 23:05 | 42.54943 | -74.24834 | 35860 ft | 370 kts | 241° |
| 2026-05-07 23:06 | 42.52277 | -74.30786 | 35860 ft | 372 kts | 241° |
| 2026-05-07 23:06 | 42.49595 | -74.36758 | 35851 ft | 372 kts | 241° |
| 2026-05-07 23:07 | 42.46907 | -74.42735 | 35841 ft | 372 kts | 241° |
| 2026-05-07 23:07 | 42.44207 | -74.48731 | 35843 ft | 373 kts | 241° |
| 2026-05-07 23:08 | 42.41521 | -74.54684 | 35837 ft | 371 kts | 242° |
| 2026-05-07 23:08 | 42.38826 | -74.60641 | 35845 ft | 373 kts | 241° |
| 2026-05-07 23:09 | 42.36124 | -74.66602 | 35844 ft | 373 kts | 240° |
| 2026-05-07 23:09 | 42.33419 | -74.72556 | 35855 ft | 373 kts | 240° |
| 2026-05-07 23:10 | 42.30703 | -74.78525 | 35849 ft | 373 kts | 241° |
| 2026-05-07 23:10 | 42.28003 | -74.84446 | 35850 ft | 373 kts | 241° |
| 2026-05-07 23:11 | 42.25275 | -74.90414 | 35849 ft | 373 kts | 240° |
| 2026-05-07 23:11 | 42.22538 | -74.96378 | 35848 ft | 373 kts | 241° |
| 2026-05-07 23:12 | 42.19831 | -75.02281 | 35861 ft | 373 kts | 241° |
| 2026-05-07 23:12 | 42.17101 | -75.08222 | 35871 ft | 373 kts | 241° |
| 2026-05-07 23:13 | 42.14369 | -75.14158 | 35872 ft | 374 kts | 241° |
| 2026-05-07 23:13 | 42.11632 | -75.20091 | 35871 ft | 374 kts | 241° |
| 2026-05-07 23:14 | 42.08885 | -75.26025 | 35865 ft | 373 kts | 241° |
| 2026-05-07 23:14 | 42.06157 | -75.31918 | 35865 ft | 373 kts | 242° |
| 2026-05-07 23:15 | 42.03594 | -75.37944 | 35874 ft | 371 kts | 244° |
| 2026-05-07 23:15 | 42.01123 | -75.44074 | 35881 ft | 373 kts | 244° |
| 2026-05-07 23:16 | 41.98661 | -75.50148 | 35880 ft | 372 kts | 244° |
| 2026-05-07 23:16 | 41.96163 | -75.56239 | 35879 ft | 371 kts | 244° |
| 2026-05-07 23:17 | 41.93673 | -75.62270 | 35885 ft | 373 kts | 244° |
| 2026-05-07 23:17 | 41.91157 | -75.68349 | 35886 ft | 372 kts | 243° |
| 2026-05-07 23:18 | 41.88633 | -75.74434 | 35890 ft | 373 kts | 243° |
| 2026-05-07 23:18 | 41.86101 | -75.80526 | 35888 ft | 372 kts | 243° |
| 2026-05-07 23:19 | 41.83588 | -75.86558 | 35885 ft | 372 kts | 243° |
| 2026-05-07 23:19 | 41.81063 | -75.92601 | 35891 ft | 373 kts | 243° |
| 2026-05-07 23:20 | 41.78530 | -75.98656 | 35888 ft | 373 kts | 244° |
| 2026-05-07 23:20 | 41.76005 | -76.04677 | 35886 ft | 373 kts | 243° |
| 2026-05-07 23:21 | 41.73474 | -76.10693 | 35885 ft | 373 kts | 243° |
| 2026-05-07 23:21 | 41.70927 | -76.16745 | 35885 ft | 373 kts | 244° |
| 2026-05-07 23:22 | 41.68395 | -76.22755 | 35878 ft | 373 kts | 243° |
| 2026-05-07 23:22 | 41.65844 | -76.28793 | 35868 ft | 374 kts | 244° |
| 2026-05-07 23:23 | 41.63297 | -76.34813 | 35874 ft | 372 kts | 244° |
| 2026-05-07 23:23 | 41.60743 | -76.40825 | 35864 ft | 372 kts | 244° |
| 2026-05-07 23:24 | 41.58202 | -76.46795 | 35860 ft | 371 kts | 244° |
| 2026-05-07 23:24 | 41.55651 | -76.52786 | 35862 ft | 373 kts | 244° |
| 2026-05-07 23:25 | 41.53092 | -76.58782 | 35860 ft | 373 kts | 244° |
| 2026-05-07 23:25 | 41.50527 | -76.64768 | 35857 ft | 372 kts | 244° |
| 2026-05-07 23:26 | 41.47953 | -76.70769 | 35858 ft | 375 kts | 244° |
| 2026-05-07 23:26 | 41.45379 | -76.76764 | 35865 ft | 373 kts | 244° |
| 2026-05-07 23:27 | 41.41503 | -76.85765 | 35864 ft | 373 kts | 244° |
| 2026-05-07 23:27 | 41.38925 | -76.91734 | 35861 ft | 373 kts | 243° |
| 2026-05-07 23:28 | 41.36342 | -76.97701 | 35864 ft | 372 kts | 243° |
| 2026-05-07 23:28 | 41.33760 | -77.03660 | 35864 ft | 374 kts | 243° |
| 2026-05-07 23:29 | 41.31173 | -77.09611 | 35869 ft | 373 kts | 244° |
| 2026-05-07 23:29 | 41.28582 | -77.15568 | 35870 ft | 373 kts | 244° |
| 2026-05-07 23:30 | 41.25998 | -77.21491 | 35874 ft | 372 kts | 244° |
| 2026-05-07 23:30 | 41.23401 | -77.27433 | 35870 ft | 372 kts | 244° |
| 2026-05-07 23:31 | 41.20815 | -77.33340 | 35873 ft | 372 kts | 244° |
| 2026-05-07 23:31 | 41.18220 | -77.39259 | 35869 ft | 371 kts | 244° |
| 2026-05-07 23:32 | 41.15629 | -77.45157 | 35878 ft | 371 kts | 244° |
| 2026-05-07 23:32 | 41.13037 | -77.51037 | 35876 ft | 370 kts | 244° |
| 2026-05-07 23:33 | 41.10444 | -77.56915 | 35882 ft | 370 kts | 244° |
| 2026-05-07 23:33 | 41.07865 | -77.62746 | 35887 ft | 369 kts | 244° |
| 2026-05-07 23:34 | 41.05276 | -77.68597 | 35895 ft | 368 kts | 244° |
| 2026-05-07 23:34 | 41.02692 | -77.74418 | 35892 ft | 367 kts | 244° |
| 2026-05-07 23:35 | 41.00114 | -77.80215 | 35892 ft | 369 kts | 244° |
| 2026-05-07 23:35 | 40.97518 | -77.86045 | 35907 ft | 368 kts | 244° |
| 2026-05-07 23:36 | 40.94925 | -77.91855 | 35898 ft | 368 kts | 244° |
| 2026-05-07 23:36 | 40.92303 | -77.97656 | 35903 ft | 369 kts | 243° |
| 2026-05-07 23:37 | 40.89216 | -78.03075 | 35898 ft | 372 kts | 236° |
| 2026-05-07 23:37 | 40.85814 | -78.08237 | 35898 ft | 375 kts | 236° |
| 2026-05-07 23:38 | 40.82378 | -78.13408 | 35902 ft | 374 kts | 236° |
| 2026-05-07 23:38 | 40.78957 | -78.18584 | 35896 ft | 373 kts | 236° |
| 2026-05-07 23:39 | 40.75570 | -78.23728 | 35890 ft | 373 kts | 236° |
| 2026-05-07 23:39 | 40.72182 | -78.28871 | 35895 ft | 374 kts | 236° |
| 2026-05-07 23:40 | 40.68775 | -78.34031 | 35886 ft | 372 kts | 236° |
| 2026-05-07 23:40 | 40.65369 | -78.39183 | 35887 ft | 373 kts | 236° |
| 2026-05-07 23:41 | 40.61959 | -78.44330 | 35888 ft | 372 kts | 236° |
| 2026-05-07 23:41 | 40.58568 | -78.49444 | 35884 ft | 372 kts | 236° |
| 2026-05-07 23:42 | 40.55158 | -78.54582 | 35887 ft | 375 kts | 237° |
| 2026-05-07 23:42 | 40.51729 | -78.59732 | 35891 ft | 374 kts | 237° |
| 2026-05-07 23:43 | 40.48309 | -78.64862 | 35891 ft | 373 kts | 236° |
| 2026-05-07 23:43 | 40.44875 | -78.70001 | 35892 ft | 374 kts | 236° |
| 2026-05-07 23:44 | 40.41454 | -78.75118 | 35899 ft | 373 kts | 236° |
| 2026-05-07 23:44 | 40.38052 | -78.80196 | 35913 ft | 373 kts | 236° |
| 2026-05-07 23:45 | 40.34616 | -78.85313 | 35918 ft | 372 kts | 236° |
| 2026-05-07 23:45 | 40.31213 | -78.90382 | 35911 ft | 373 kts | 236° |
| 2026-05-07 23:46 | 40.27778 | -78.95481 | 35921 ft | 372 kts | 236° |
| 2026-05-07 23:46 | 40.24358 | -79.00548 | 35921 ft | 372 kts | 236° |
| 2026-05-07 23:47 | 40.20937 | -79.05607 | 35920 ft | 372 kts | 236° |
| 2026-05-07 23:47 | 40.17513 | -79.10666 | 35921 ft | 371 kts | 236° |
| 2026-05-07 23:48 | 40.14111 | -79.15689 | 35924 ft | 371 kts | 236° |
| 2026-05-07 23:48 | 40.10727 | -79.20763 | 35924 ft | 370 kts | 237° |
| 2026-05-07 23:49 | 40.07378 | -79.25822 | 35926 ft | 370 kts | 237° |
| 2026-05-07 23:49 | 40.04001 | -79.30916 | 35927 ft | 371 kts | 237° |
| 2026-05-07 23:50 | 40.00622 | -79.35990 | 35934 ft | 371 kts | 237° |
| 2026-05-07 23:50 | 39.97262 | -79.41022 | 35932 ft | 369 kts | 237° |
| 2026-05-07 23:51 | 39.93880 | -79.46079 | 35934 ft | 370 kts | 237° |
| 2026-05-07 23:51 | 39.90508 | -79.51111 | 35939 ft | 371 kts | 237° |
| 2026-05-07 23:52 | 39.87141 | -79.56130 | 35949 ft | 370 kts | 237° |
| 2026-05-07 23:52 | 39.83754 | -79.61173 | 35947 ft | 369 kts | 237° |
| 2026-05-07 23:53 | 39.80380 | -79.66182 | 35953 ft | 371 kts | 236° |
| 2026-05-07 23:53 | 39.76972 | -79.71236 | 35957 ft | 370 kts | 236° |
| 2026-05-07 23:54 | 39.73608 | -79.76215 | 35854 ft | 369 kts | 236° |
| 2026-05-07 23:54 | 39.70187 | -79.81281 | 35827 ft | 375 kts | 237° |
| 2026-05-07 23:55 | 39.68486 | -79.83793 | 35951 ft | 371 kts | 236° |
| 2026-05-07 23:55 | 39.66790 | -79.86296 | 35954 ft | 373 kts | 236° |
| 2026-05-07 23:55 | 39.63366 | -79.91338 | 35960 ft | 373 kts | 237° |
| 2026-05-07 23:56 | 39.59969 | -79.96327 | 36006 ft | 372 kts | 237° |
| 2026-05-07 23:56 | 39.56573 | -80.01314 | 35966 ft | 367 kts | 237° |
| 2026-05-07 23:57 | 39.53149 | -80.06342 | 35974 ft | 373 kts | 237° |
| 2026-05-07 23:57 | 39.49731 | -80.11349 | 35940 ft | 371 kts | 237° |
| 2026-05-07 23:58 | 39.46325 | -80.16335 | 35948 ft | 370 kts | 237° |
| 2026-05-07 23:58 | 39.42908 | -80.21323 | 35964 ft | 369 kts | 237° |
| 2026-05-07 23:59 | 39.39509 | -80.26295 | 35932 ft | 369 kts | 237° |
| 2026-05-07 23:59 | 39.36114 | -80.31239 | 35968 ft | 369 kts | 237° |
| 2026-05-08 00:00 | 39.32702 | -80.36195 | 35943 ft | 369 kts | 237° |
| 2026-05-08 00:00 | 39.29284 | -80.41148 | 35958 ft | 369 kts | 237° |
| 2026-05-08 00:01 | 39.25875 | -80.46094 | 35970 ft | 370 kts | 237° |
| 2026-05-08 00:01 | 39.22462 | -80.51028 | 35978 ft | 368 kts | 238° |
| 2026-05-08 00:02 | 39.19047 | -80.55965 | 35968 ft | 370 kts | 237° |
| 2026-05-08 00:02 | 39.15645 | -80.60862 | 35966 ft | 366 kts | 238° |
| 2026-05-08 00:03 | 39.12250 | -80.65748 | 35995 ft | 367 kts | 237° |
| 2026-05-08 00:03 | 39.08843 | -80.70651 | 35975 ft | 368 kts | 237° |
| 2026-05-08 00:04 | 39.05443 | -80.75526 | 35968 ft | 367 kts | 237° |
| 2026-05-08 00:04 | 39.02050 | -80.80393 | 35988 ft | 366 kts | 237° |
| 2026-05-08 00:05 | 38.98663 | -80.85291 | 35961 ft | 365 kts | 238° |
| 2026-05-08 00:05 | 38.95298 | -80.90208 | 36011 ft | 366 kts | 237° |
| 2026-05-08 00:06 | 38.91952 | -80.95089 | 35985 ft | 364 kts | 237° |
| 2026-05-08 00:06 | 38.88590 | -80.99983 | 35978 ft | 364 kts | 238° |
| 2026-05-08 00:07 | 38.85226 | -81.04880 | 35990 ft | 366 kts | 238° |
| 2026-05-08 00:07 | 38.81842 | -81.09785 | 35980 ft | 365 kts | 238° |
| 2026-05-08 00:08 | 38.78489 | -81.14635 | 35977 ft | 364 kts | 237° |
| 2026-05-08 00:08 | 38.75132 | -81.19486 | 35980 ft | 364 kts | 238° |
| 2026-05-08 00:09 | 38.71780 | -81.24320 | 35973 ft | 364 kts | 238° |
| 2026-05-08 00:09 | 38.68432 | -81.29145 | 35984 ft | 364 kts | 238° |
| 2026-05-08 00:10 | 38.65064 | -81.33990 | 35977 ft | 365 kts | 238° |
| 2026-05-08 00:10 | 38.61681 | -81.38847 | 35976 ft | 363 kts | 238° |
| 2026-05-08 00:11 | 38.58338 | -81.43639 | 35973 ft | 364 kts | 238° |
| 2026-05-08 00:11 | 38.54970 | -81.48458 | 35986 ft | 362 kts | 238° |
| 2026-05-08 00:12 | 38.51619 | -81.53252 | 35994 ft | 362 kts | 238° |
| 2026-05-08 00:12 | 38.48279 | -81.58024 | 35984 ft | 362 kts | 238° |
| 2026-05-08 00:13 | 38.44902 | -81.62839 | 35994 ft | 362 kts | 238° |
| 2026-05-08 00:13 | 38.41569 | -81.67581 | 35977 ft | 362 kts | 238° |
| 2026-05-08 00:14 | 38.38196 | -81.72372 | 36015 ft | 363 kts | 238° |
| 2026-05-08 00:14 | 38.35207 | -81.77393 | 35992 ft | 348 kts | 247° |
| 2026-05-08 00:15 | 38.33232 | -81.82988 | 35997 ft | 342 kts | 255° |
| 2026-05-08 00:15 | 38.31656 | -81.88659 | 35972 ft | 342 kts | 256° |
| 2026-05-08 00:16 | 38.30078 | -81.94384 | 35996 ft | 341 kts | 255° |
| 2026-05-08 00:16 | 38.28493 | -82.00070 | 35987 ft | 342 kts | 255° |
| 2026-05-08 00:17 | 38.26910 | -82.05712 | 35971 ft | 340 kts | 256° |
| 2026-05-08 00:17 | 38.25305 | -82.11403 | 35999 ft | 342 kts | 255° |
| 2026-05-08 00:18 | 38.23705 | -82.17066 | 36002 ft | 342 kts | 256° |
| 2026-05-08 00:18 | 38.22095 | -82.22739 | 35987 ft | 341 kts | 256° |
| 2026-05-08 00:19 | 38.20489 | -82.28381 | 35993 ft | 341 kts | 255° |
| 2026-05-08 00:19 | 38.18883 | -82.34037 | 36000 ft | 340 kts | 255° |
| 2026-05-08 00:20 | 38.17279 | -82.39686 | 36004 ft | 340 kts | 255° |
| 2026-05-08 00:20 | 38.15671 | -82.45309 | 36007 ft | 339 kts | 255° |
| 2026-05-08 00:21 | 38.14066 | -82.50912 | 36007 ft | 339 kts | 255° |
| 2026-05-08 00:21 | 38.12452 | -82.56533 | 36003 ft | 341 kts | 256° |
| 2026-05-08 00:22 | 38.10841 | -82.62134 | 36002 ft | 337 kts | 256° |
| 2026-05-08 00:22 | 38.09219 | -82.67763 | 36009 ft | 340 kts | 256° |
| 2026-05-08 00:23 | 38.07603 | -82.73373 | 36013 ft | 340 kts | 255° |
| 2026-05-08 00:23 | 38.05978 | -82.78984 | 36016 ft | 338 kts | 255° |
| 2026-05-08 00:24 | 38.04359 | -82.84564 | 36007 ft | 338 kts | 255° |
| 2026-05-08 00:24 | 38.02737 | -82.90144 | 36011 ft | 339 kts | 255° |
| 2026-05-08 00:25 | 38.01110 | -82.95754 | 36011 ft | 337 kts | 255° |
| 2026-05-08 00:25 | 37.99490 | -83.01303 | 36012 ft | 336 kts | 255° |
| 2026-05-08 00:26 | 37.97870 | -83.06866 | 36008 ft | 338 kts | 255° |
| 2026-05-08 00:26 | 37.96239 | -83.12428 | 36005 ft | 336 kts | 256° |
| 2026-05-08 00:27 | 37.94618 | -83.17940 | 36007 ft | 336 kts | 256° |
| 2026-05-08 00:27 | 37.92976 | -83.23506 | 36004 ft | 338 kts | 255° |
| 2026-05-08 00:28 | 37.91346 | -83.29042 | 36008 ft | 335 kts | 255° |
| 2026-05-08 00:28 | 37.89716 | -83.34583 | 36009 ft | 337 kts | 255° |
| 2026-05-08 00:29 | 37.88076 | -83.40115 | 36013 ft | 334 kts | 255° |
| 2026-05-08 00:29 | 37.86451 | -83.45607 | 36019 ft | 335 kts | 256° |
| 2026-05-08 00:30 | 37.84813 | -83.51116 | 36022 ft | 334 kts | 255° |
| 2026-05-08 00:30 | 37.83178 | -83.56602 | 36018 ft | 334 kts | 255° |
| 2026-05-08 00:31 | 37.81535 | -83.62099 | 36019 ft | 334 kts | 256° |
| 2026-05-08 00:31 | 37.79886 | -83.67624 | 36018 ft | 335 kts | 255° |
| 2026-05-08 00:32 | 37.78225 | -83.73174 | 36197 ft | 337 kts | 255° |
| 2026-05-08 00:32 | 37.77397 | -83.75939 | 36019 ft | 333 kts | 255° |
| 2026-05-08 00:32 | 37.76582 | -83.78638 | 36021 ft | 328 kts | 255° |
| 2026-05-08 00:33 | 37.74945 | -83.84068 | 36022 ft | 330 kts | 255° |
| 2026-05-08 00:33 | 37.73308 | -83.89497 | 36022 ft | 329 kts | 256° |
| 2026-05-08 00:34 | 37.71673 | -83.94923 | 36021 ft | 330 kts | 255° |
| 2026-05-08 00:34 | 37.70041 | -84.00329 | 36025 ft | 328 kts | 255° |
| 2026-05-08 00:35 | 37.68420 | -84.05686 | 36026 ft | 328 kts | 256° |
| 2026-05-08 00:35 | 37.66792 | -84.11043 | 36028 ft | 330 kts | 255° |
| 2026-05-08 00:36 | 37.64648 | -84.16190 | 36034 ft | 341 kts | 243° |
| 2026-05-08 00:36 | 37.62981 | -84.18436 | 36037 ft | 354 kts | 236° |
| 2026-05-08 00:36 | 37.61119 | -84.20521 | 36035 ft | 360 kts | 234° |
| 2026-05-08 00:37 | 37.57330 | -84.24551 | 36040 ft | 356 kts | 233° |
| 2026-05-08 00:38 | 37.51668 | -84.30656 | 36032 ft | 355 kts | 234° |
| 2026-05-08 00:38 | 37.47957 | -84.34688 | 36029 ft | 352 kts | 234° |
| 2026-05-08 00:39 | 37.44221 | -84.38760 | 36028 ft | 358 kts | 234° |
| 2026-05-08 00:39 | 37.40460 | -84.42844 | 36025 ft | 355 kts | 234° |
| 2026-05-08 00:40 | 37.36748 | -84.46872 | 36026 ft | 353 kts | 234° |
| 2026-05-08 00:40 | 37.33016 | -84.50916 | 36027 ft | 354 kts | 234° |
| 2026-05-08 00:41 | 37.29290 | -84.54958 | 36025 ft | 354 kts | 234° |
| 2026-05-08 00:41 | 37.25586 | -84.58970 | 36025 ft | 354 kts | 234° |
| 2026-05-08 00:42 | 37.21869 | -84.62988 | 36026 ft | 352 kts | 234° |
| 2026-05-08 00:42 | 37.18119 | -84.67032 | 36026 ft | 356 kts | 234° |
| 2026-05-08 00:43 | 37.14388 | -84.71053 | 36031 ft | 352 kts | 234° |
| 2026-05-08 00:43 | 37.10675 | -84.75053 | 36032 ft | 353 kts | 234° |
| 2026-05-08 00:44 | 37.06956 | -84.79031 | 36032 ft | 351 kts | 234° |
| 2026-05-08 00:44 | 37.03418 | -84.83127 | 36035 ft | 343 kts | 239° |
| 2026-05-08 00:45 | 37.00666 | -84.87791 | 36038 ft | 329 kts | 247° |
| 2026-05-08 00:45 | 36.98325 | -84.92662 | 36031 ft | 328 kts | 248° |
| 2026-05-08 00:46 | 36.96016 | -84.97569 | 36032 ft | 328 kts | 248° |
| 2026-05-08 00:46 | 36.93691 | -85.02465 | 35898 ft | 326 kts | 249° |
| 2026-05-08 00:46 | 36.92540 | -85.04845 | 35220 ft | 321 kts | 249° |
| 2026-05-08 00:47 | 36.91388 | -85.07218 | 34110 ft | 324 kts | 248° |
| 2026-05-08 00:47 | 36.90226 | -85.09604 | 32793 ft | 333 kts | 248° |
| 2026-05-08 00:47 | 36.89016 | -85.12084 | 31373 ft | 345 kts | 246° |
| 2026-05-08 00:47 | 36.87757 | -85.14653 | 30404 ft | 344 kts | 246° |
| 2026-05-08 00:48 | 36.86507 | -85.17175 | 29838 ft | 341 kts | 246° |
| 2026-05-08 00:48 | 36.85272 | -85.19657 | 29131 ft | 343 kts | 245° |
| 2026-05-08 00:48 | 36.84016 | -85.22185 | 28376 ft | 346 kts | 245° |
| 2026-05-08 00:48 | 36.82742 | -85.24749 | 27567 ft | 348 kts | 245° |
| 2026-05-08 00:49 | 36.81480 | -85.27286 | 26722 ft | 352 kts | 245° |
| 2026-05-08 00:49 | 36.80171 | -85.29926 | 25823 ft | 372 kts | 246° |
| 2026-05-08 00:49 | 36.78789 | -85.32730 | 24844 ft | 392 kts | 245° |
| 2026-05-08 00:49 | 36.77354 | -85.35622 | 23934 ft | 393 kts | 244° |
| 2026-05-08 00:50 | 36.75923 | -85.38468 | 23403 ft | 385 kts | 245° |
| 2026-05-08 00:50 | 36.74520 | -85.41258 | 23047 ft | 378 kts | 245° |
| 2026-05-08 00:50 | 36.73151 | -85.44080 | 23031 ft | 384 kts | 245° |
| 2026-05-08 00:50 | 36.71803 | -85.46952 | 23033 ft | 394 kts | 246° |
| 2026-05-08 00:51 | 36.70414 | -85.49937 | 23036 ft | 398 kts | 246° |
| 2026-05-08 00:51 | 36.69018 | -85.52924 | 23036 ft | 396 kts | 246° |
| 2026-05-08 00:51 | 36.67641 | -85.55859 | 22869 ft | 392 kts | 246° |
| 2026-05-08 00:51 | 36.66276 | -85.58756 | 22296 ft | 387 kts | 246° |
| 2026-05-08 00:52 | 36.64922 | -85.61626 | 21675 ft | 382 kts | 245° |
| 2026-05-08 00:52 | 36.63590 | -85.64445 | 21052 ft | 377 kts | 246° |
| 2026-05-08 00:52 | 36.62282 | -85.67212 | 20441 ft | 374 kts | 245° |
| 2026-05-08 00:52 | 36.60963 | -85.70001 | 19925 ft | 369 kts | 245° |
| 2026-05-08 00:53 | 36.59672 | -85.72726 | 19611 ft | 359 kts | 245° |
| 2026-05-08 00:53 | 36.58440 | -85.75317 | 19420 ft | 345 kts | 245° |
| 2026-05-08 00:53 | 36.57251 | -85.77864 | 19252 ft | 330 kts | 245° |
| 2026-05-08 00:53 | 36.56119 | -85.80276 | 19034 ft | 320 kts | 245° |
| 2026-05-08 00:54 | 36.55002 | -85.82622 | 19042 ft | 318 kts | 245° |
| 2026-05-08 00:54 | 36.53857 | -85.85030 | 19041 ft | 321 kts | 245° |
| 2026-05-08 00:54 | 36.52729 | -85.87404 | 19042 ft | 323 kts | 245° |
| 2026-05-08 00:54 | 36.51582 | -85.89809 | 19038 ft | 321 kts | 245° |
| 2026-05-08 00:55 | 36.50434 | -85.92217 | 19040 ft | 321 kts | 245° |
| 2026-05-08 00:55 | 36.49296 | -85.94604 | 19049 ft | 323 kts | 245° |
| 2026-05-08 00:55 | 36.48155 | -85.96995 | 19046 ft | 323 kts | 246° |
| 2026-05-08 00:55 | 36.47006 | -85.99403 | 19021 ft | 320 kts | 245° |
| 2026-05-08 00:56 | 36.45882 | -86.01752 | 18709 ft | 316 kts | 245° |
| 2026-05-08 00:56 | 36.44766 | -86.04085 | 18266 ft | 312 kts | 245° |
| 2026-05-08 00:56 | 36.43665 | -86.06387 | 17808 ft | 309 kts | 245° |
| 2026-05-08 00:56 | 36.42585 | -86.08644 | 17345 ft | 306 kts | 245° |
| 2026-05-08 00:57 | 36.41494 | -86.10922 | 16876 ft | 304 kts | 245° |
| 2026-05-08 00:57 | 36.40422 | -86.13158 | 16413 ft | 302 kts | 245° |
| 2026-05-08 00:57 | 36.39354 | -86.15387 | 15924 ft | 301 kts | 245° |
| 2026-05-08 00:57 | 36.38291 | -86.17603 | 15452 ft | 299 kts | 245° |
| 2026-05-08 00:58 | 36.37239 | -86.19796 | 14999 ft | 297 kts | 245° |
| 2026-05-08 00:58 | 36.36177 | -86.22010 | 14542 ft | 296 kts | 245° |
| 2026-05-08 00:58 | 36.35144 | -86.24159 | 14086 ft | 294 kts | 245° |
| 2026-05-08 00:58 | 36.34090 | -86.26347 | 13643 ft | 292 kts | 245° |
| 2026-05-08 00:59 | 36.33061 | -86.28482 | 13199 ft | 290 kts | 245° |
| 2026-05-08 00:59 | 36.32027 | -86.30628 | 12766 ft | 293 kts | 245° |
| 2026-05-08 00:59 | 36.30965 | -86.32844 | 12278 ft | 308 kts | 244° |
| 2026-05-08 00:59 | 36.29871 | -86.35118 | 11876 ft | 308 kts | 244° |
| 2026-05-08 01:00 | 36.28777 | -86.37372 | 11642 ft | 297 kts | 244° |
| 2026-05-08 01:00 | 36.27739 | -86.39501 | 11535 ft | 284 kts | 244° |
| 2026-05-08 01:00 | 36.26737 | -86.41561 | 11317 ft | 277 kts | 245° |
| 2026-05-08 01:00 | 36.25746 | -86.43613 | 10896 ft | 277 kts | 245° |
| 2026-05-08 01:01 | 36.24763 | -86.45655 | 10498 ft | 276 kts | 244° |
| 2026-05-08 01:01 | 36.23783 | -86.47686 | 10124 ft | 274 kts | 244° |
| 2026-05-08 01:01 | 36.22809 | -86.49677 | 9926 ft | 267 kts | 242° |
| 2026-05-08 01:01 | 36.21668 | -86.51480 | 9741 ft | 265 kts | 228° |
| 2026-05-08 01:02 | 36.20075 | -86.52651 | 9448 ft | 272 kts | 206° |
| 2026-05-08 01:02 | 36.18268 | -86.53340 | 9056 ft | 276 kts | 200° |
| 2026-05-08 01:02 | 36.16408 | -86.53962 | 8689 ft | 276 kts | 200° |
| 2026-05-08 01:02 | 36.14568 | -86.54626 | 8331 ft | 275 kts | 202° |
| 2026-05-08 01:03 | 36.12740 | -86.55339 | 8112 ft | 269 kts | 202° |
| 2026-05-08 01:03 | 36.11005 | -86.56039 | 8035 ft | 257 kts | 202° |
| 2026-05-08 01:03 | 36.09346 | -86.56702 | 7993 ft | 246 kts | 202° |
| 2026-05-08 01:03 | 36.07717 | -86.57318 | 7824 ft | 241 kts | 201° |
| 2026-05-08 01:04 | 36.06118 | -86.57921 | 7530 ft | 241 kts | 201° |
| 2026-05-08 01:04 | 36.04519 | -86.58535 | 7265 ft | 240 kts | 202° |
| 2026-05-08 01:04 | 36.02913 | -86.59162 | 6999 ft | 239 kts | 201° |
| 2026-05-08 01:04 | 36.01345 | -86.59789 | 6766 ft | 237 kts | 202° |
| 2026-05-08 01:05 | 35.99780 | -86.60423 | 6492 ft | 237 kts | 201° |
| 2026-05-08 01:05 | 35.98219 | -86.61065 | 6232 ft | 236 kts | 201° |
| 2026-05-08 01:05 | 35.96666 | -86.61716 | 5961 ft | 236 kts | 202° |
| 2026-05-08 01:05 | 35.95116 | -86.62369 | 5689 ft | 236 kts | 201° |
| 2026-05-08 01:06 | 35.93559 | -86.63028 | 5425 ft | 235 kts | 201° |
| 2026-05-08 01:06 | 35.92006 | -86.63693 | 5158 ft | 235 kts | 202° |
| 2026-05-08 01:06 | 35.90460 | -86.64354 | 4911 ft | 234 kts | 201° |
| 2026-05-08 01:06 | 35.88928 | -86.65012 | 4655 ft | 234 kts | 201° |
| 2026-05-08 01:07 | 35.87376 | -86.65687 | 4385 ft | 234 kts | 201° |
| 2026-05-08 01:07 | 35.85846 | -86.66360 | 4166 ft | 232 kts | 201° |
| 2026-05-08 01:07 | 35.84334 | -86.67030 | 3912 ft | 233 kts | 201° |
| 2026-05-08 01:07 | 35.82877 | -86.67866 | 3637 ft | 230 kts | 220° |
| 2026-05-08 01:08 | 35.81916 | -86.69391 | 3371 ft | 224 kts | 253° |
| 2026-05-08 01:08 | 35.81782 | -86.71233 | 3074 ft | 217 kts | 285° |
| 2026-05-08 01:08 | 35.82414 | -86.72860 | 3000 ft | 208 kts | 315° |
| 2026-05-08 01:08 | 35.83644 | -86.73803 | 3004 ft | 209 kts | 342° |
| 2026-05-08 01:09 | 35.85048 | -86.74284 | 2998 ft | 210 kts | 346° |
| 2026-05-08 01:09 | 35.86459 | -86.74734 | 2992 ft | 209 kts | 346° |
| 2026-05-08 01:09 | 35.87891 | -86.75178 | 3002 ft | 210 kts | 349° |
| 2026-05-08 01:09 | 35.89341 | -86.75291 | 3004 ft | 210 kts | 6° |
| 2026-05-08 01:10 | 35.90757 | -86.74897 | 3007 ft | 210 kts | 16° |
| 2026-05-08 01:10 | 35.92140 | -86.74343 | 3005 ft | 208 kts | 17° |
| 2026-05-08 01:10 | 35.93540 | -86.73792 | 3004 ft | 210 kts | 16° |
| 2026-05-08 01:10 | 35.94938 | -86.73251 | 3000 ft | 207 kts | 16° |
| 2026-05-08 01:11 | 35.96254 | -86.72728 | 3006 ft | 193 kts | 16° |
| 2026-05-08 01:11 | 35.97490 | -86.72234 | 3003 ft | 179 kts | 16° |
| 2026-05-08 01:11 | 35.98662 | -86.71775 | 3003 ft | 178 kts | 16° |
| 2026-05-08 01:11 | 35.99852 | -86.71305 | 2941 ft | 179 kts | 17° |
| 2026-05-08 01:12 | 36.01037 | -86.70830 | 2722 ft | 177 kts | 17° |
| 2026-05-08 01:12 | 36.02210 | -86.70364 | 2483 ft | 175 kts | 16° |
| 2026-05-08 01:12 | 36.03379 | -86.69894 | 2248 ft | 176 kts | 17° |
| 2026-05-08 01:12 | 36.04499 | -86.69455 | 2032 ft | 163 kts | 15° |
| 2026-05-08 01:13 | 36.05530 | -86.69051 | 1806 ft | 150 kts | 16° |
| 2026-05-08 01:13 | 36.06496 | -86.68658 | 1565 ft | 140 kts | 16° |
| 2026-05-08 01:13 | 36.07412 | -86.68303 | 1443 ft | 139 kts | 16° |
| 2026-05-08 01:13 | 36.08337 | -86.67941 | 1264 ft | 139 kts | 16° |
| 2026-05-08 01:14 | 36.09265 | -86.67555 | 1070 ft | 139 kts | 17° |
| 2026-05-08 01:14 | 36.10197 | -86.67191 | 887 ft | 142 kts | 15° |
| 2026-05-08 01:14 | 36.11158 | -86.66808 | 685 ft | 146 kts | 16° |
| 2026-05-08 01:14 | 36.12088 | -86.66438 | 607 ft | 123 kts | 17° |
| 2026-05-08 01:15 | 36.12674 | -86.66204 | 607 ft | 52 kts | 18° |
| 2026-05-08 01:15 | 36.12854 | -86.66138 | 607 ft | 4 kts | 315° |
| 2026-05-08 01:15 | 36.12837 | -86.66187 | 607 ft | 7 kts | 259° |
| 2026-05-08 01:15 | 36.12835 | -86.66248 | 607 ft | 5 kts | 285° |
| 2026-05-08 01:16 | 36.12837 | -86.66258 | 607 ft | 3 kts | 277° |
| 2026-05-08 01:16 | 36.12790 | -86.66299 | 607 ft | 14 kts | 198° |
| 2026-05-08 01:16 | 36.12679 | -86.66344 | 607 ft | 18 kts | 198° |
| 2026-05-08 01:16 | 36.12557 | -86.66395 | 607 ft | 18 kts | 198° |
| 2026-05-08 01:17 | 36.12437 | -86.66442 | 607 ft | 17 kts | 198° |
| 2026-05-08 01:17 | 36.12320 | -86.66490 | 607 ft | 16 kts | 199° |
| 2026-05-08 01:17 | 36.12287 | -86.66571 | 607 ft | 12 kts | 288° |
| 2026-05-08 01:17 | 36.12315 | -86.66670 | 607 ft | 12 kts | 288° |
| 2026-05-08 01:18 | 36.12342 | -86.66770 | 607 ft | 12 kts | 288° |
| 2026-05-08 01:18 | 36.12391 | -86.66879 | 607 ft | 14 kts | 313° |
| 2026-05-08 01:18 | 36.12463 | -86.66953 | 607 ft | 12 kts | 354° |
| 2026-05-08 01:18 | 36.12545 | -86.66911 | 607 ft | 12 kts | 29° |
| 2026-05-08 01:19 | 36.12620 | -86.66872 | 607 ft | 11 kts | 343° |
| 2026-05-08 01:19 | 36.12676 | -86.66937 | 607 ft | 13 kts | 311° |
| 2026-05-08 01:19 | 36.12743 | -86.67033 | 607 ft | 14 kts | 310° |
| 2026-05-08 01:19 | 36.12814 | -86.67136 | 607 ft | 16 kts | 308° |
| 2026-05-08 01:20 | 36.12881 | -86.67227 | 607 ft | 13 kts | 337° |
| 2026-05-08 01:20 | 36.12939 | -86.67209 | 607 ft | 3 kts | 41° |
| 2026-05-08 01:20 | 36.12948 | -86.67190 | 607 ft | 1 kts | 77° |
| 2026-05-08 01:20 | 36.12942 | -86.67168 | 607 ft | 3 kts | 111° |
| 2026-05-08 01:21 | 36.12957 | -86.67155 | 607 ft | 8 kts | 7° |
| 2026-05-08 01:21 | 36.12969 | -86.67125 | 607 ft | 0 kts | 135° |
| 2026-05-08 01:21 | 36.12960 | -86.67110 | 607 ft | 3 kts | 130° |
| 2026-05-08 01:21 | 36.12952 | -86.67100 | 607 ft | 0 kts | 131° |
| 2026-05-08 01:22 | 36.12952 | -86.67099 | 607 ft | 0 kts | 131° |